Butes — A8UR6 — position and weather

sailwx.info

Track history (hours):
 
Tides and Currents Weather Stations Pressure Air Temp Water Temp Dewpoint Dewpoint Depression Visibility Wind Speed Wind Dir Waves Ship Positions

Butes

Last reported at 2016-Jul-27 05:23 UTC. Time now 2016-Jul-27 19:17 UTC.
Position N 49°29' W 004°13'.

Length 90 m; draft 5.7 m.

Type: Cargo ship. MMSI: 636091937.

Date/timePositionNaut miles runAvg speedWind from/ knotsBaromVisibWave heightAir tempDewpointWater temp
2016-Jul-27 05:23N 49°29' W 004°13'1011.1
2016-Jul-27 04:30N 49°34' W 003°60'1111.0
2016-Jul-27 03:32N 49°40' W 003°46'20 9.9
2016-Jul-27 01:32N 49°50' W 003°20'9 8.7
2016-Jul-27 00:33N 49°55' W 003°09'8 8.4
2016-Jul-26 23:33N 49°59' W 002°57'10211.0
2016-Jul-26 14:15N 50°27' W 000°24'6 8.7
2016-Jul-26 13:33N 50°29' W 000°14'9 8.5
2016-Jul-26 12:29N 50°32' W 000°01'8 9.0
2016-Jul-26 11:33N 50°34' E 000°12'4510.9
2016-Jul-26 07:26N 50°57' E 001°13'910.0
2016-Jul-26 06:33N 51°02' E 001°24'9 8.6
2016-Jul-26 05:33N 51°08' E 001°34'8 7.6
2016-Jul-26 04:33N 51°13' E 001°44'8 8.3
2016-Jul-26 03:33N 51°20' E 001°51'1010.1
2016-Jul-26 02:33N 51°28' E 002°00'1211.4
2016-Jul-26 01:31N 51°37' E 002°13'6466.2
2016-Jul-26 00:33N 52°03' E 003°47'0 0.0
2016-Jul-25 23:33N 52°03' E 003°47'0 0.0
2016-Jul-25 22:32N 52°03' E 003°47'0 0.0
2016-Jul-25 21:33N 52°03' E 003°47'0 0.0
2016-Jul-25 20:33N 52°03' E 003°47'0 0.0
2016-Jul-25 19:33N 52°03' E 003°47'7 6.8
2016-Jul-25 18:33N 52°01' E 003°58'9 9.4
2016-Jul-25 17:33N 51°57' E 004°11'7 6.6
2016-Jul-25 16:32N 51°54' E 004°21'0 0.0
2016-Jul-25 15:32N 51°54' E 004°21'0 0.0
2016-Jul-25 14:33N 51°54' E 004°21'0 0.0
2016-Jul-25 13:33N 51°54' E 004°21'0 0.0
2016-Jul-25 12:33N 51°54' E 004°21'0 0.0
2016-Jul-25 11:33N 51°54' E 004°21'0 0.0
2016-Jul-25 10:33N 51°54' E 004°21'0 0.0
2016-Jul-25 09:33N 51°54' E 004°21'0 0.0
2016-Jul-25 08:33N 51°54' E 004°21'0 0.0
2016-Jul-25 07:33N 51°54' E 004°21'0 0.0
2016-Jul-25 06:32N 51°54' E 004°21'0 0.0
2016-Jul-25 05:28N 51°54' E 004°21'0 0.0
2016-Jul-25 04:32N 51°54' E 004°21'0 0.0
2016-Jul-25 03:32N 51°54' E 004°21'0 0.0
2016-Jul-25 02:32N 51°54' E 004°21'0 0.0
2016-Jul-25 01:32N 51°54' E 004°21'0 0.0
2016-Jul-25 00:32N 51°54' E 004°21'0 0.0
2016-Jul-24 23:32N 51°54' E 004°21'0 0.0
2016-Jul-24 22:32N 51°54' E 004°21'0 0.0
2016-Jul-24 21:32N 51°54' E 004°21'0 0.0
2016-Jul-24 20:32N 51°54' E 004°21'0 0.0
2016-Jul-24 19:32N 51°54' E 004°21'0 0.0
2016-Jul-24 18:28N 51°54' E 004°21'0 0.0
2016-Jul-24 17:32N 51°54' E 004°21'0 0.0
2016-Jul-24 16:32N 51°54' E 004°21'0 0.0
2016-Jul-24 15:32N 51°54' E 004°21'0 0.0
2016-Jul-24 14:32N 51°54' E 004°21'0 0.0
2016-Jul-24 13:32N 51°54' E 004°21'0 0.0
2016-Jul-24 12:32N 51°54' E 004°21'0 0.0
2016-Jul-24 11:32N 51°54' E 004°21'0 0.0
2016-Jul-24 10:32N 51°54' E 004°21'0 0.0
2016-Jul-24 09:32N 51°54' E 004°21'0 0.0
2016-Jul-24 08:32N 51°54' E 004°21'0 0.0
2016-Jul-24 07:32N 51°54' E 004°21'0 0.0
2016-Jul-24 06:32N 51°54' E 004°21'0 0.0
2016-Jul-24 05:32N 51°54' E 004°21'0 0.0
2016-Jul-24 04:32N 51°54' E 004°21'0 0.0
2016-Jul-24 03:32N 51°54' E 004°21'0 0.0
2016-Jul-24 02:32N 51°54' E 004°21'0 0.0
2016-Jul-24 01:32N 51°54' E 004°21'0 0.0
2016-Jul-24 00:32N 51°54' E 004°21'0 0.0
2016-Jul-23 23:32N 51°54' E 004°21'0 0.0
2016-Jul-23 22:32N 51°54' E 004°21'0 0.0
2016-Jul-23 21:32N 51°54' E 004°21'0 0.0
2016-Jul-23 20:32N 51°54' E 004°21'0 0.0
2016-Jul-23 19:32N 51°54' E 004°21'0 0.0
2016-Jul-23 18:32N 51°54' E 004°21'0 0.0
2016-Jul-23 17:32N 51°54' E 004°21'0 0.0
2016-Jul-23 16:32N 51°54' E 004°21'0 0.0
2016-Jul-23 15:32N 51°54' E 004°21'0 0.0
2016-Jul-23 14:32N 51°54' E 004°21'0 0.0
2016-Jul-23 13:33N 51°54' E 004°21'6 6.5
2016-Jul-23 12:33N 51°56' E 004°12'9 9.4
2016-Jul-23 11:33N 51°60' E 003°57'2421.9
2016-Jul-23 10:28N 51°54' E 003°20'0 0.0
2016-Jul-23 09:32N 51°54' E 003°20'3 3.1
2016-Jul-23 08:26N 51°53' E 003°15'18 9.4
2016-Jul-23 06:33N 51°48' E 002°47'2411.9
2016-Jul-23 04:33N 51°32' E 002°19'1313.4
2016-Jul-23 03:33N 51°20' E 002°09'1413.5
2016-Jul-23 02:33N 51°10' E 001°54'1515.0
2016-Jul-23 01:33N 51°01' E 001°35'1514.6
2016-Jul-23 00:33N 50°48' E 001°24'3812.6
2016-Jul-22 21:32N 50°27' E 000°35'1413.1
2016-Jul-22 20:27N 50°23' E 000°13'1112.1
2016-Jul-22 19:33N 50°20' W 000°03'1111.1
2016-Jul-22 18:33N 50°17' W 000°20'1010.3
2016-Jul-22 17:33N 50°15' W 000°36'9 9.4
2016-Jul-22 16:33N 50°12' W 000°50'9 8.7
2016-Jul-22 15:32N 50°10' W 001°03'9 8.8
2016-Jul-22 14:33N 50°08' W 001°16'10 9.6
2016-Jul-22 13:33N 50°05' W 001°30'1111.1
2016-Jul-22 12:33N 50°02' W 001°47'1312.6
2016-Jul-22 11:33N 49°59' W 002°06'1613.9
2016-Jul-22 10:26N 49°55' W 002°30'1213.9
2016-Jul-22 09:33N 49°51' W 002°48'1413.5
2016-Jul-22 08:33N 49°49' W 003°09'227 7.3
2016-Jul-21 01:14N 53°34' W 003°58'812.3
2016-Jul-21 00:33N 53°33' W 003°44'1110.9
2016-Jul-20 23:33N 53°33' W 003°26'10 9.6
2016-Jul-20 22:33N 53°32' W 003°10'9 8.8
2016-Jul-20 21:33N 53°25' W 003°00'1 0.8
2016-Jul-20 20:33N 53°24' W 003°01'0 0.4
2016-Jul-20 19:29N 53°24' W 003°02'0 0.0
2016-Jul-20 18:32N 53°24' W 003°02'0 0.0
2016-Jul-20 17:32N 53°24' W 003°02'0 0.0
2016-Jul-20 16:32N 53°24' W 003°02'0 0.0
2016-Jul-20 15:32N 53°24' W 003°02'0 0.0
2016-Jul-20 14:29N 53°24' W 003°02'0 0.0
2016-Jul-20 13:26N 53°24' W 003°02'0 0.0
2016-Jul-20 12:29N 53°24' W 003°02'0 0.0
2016-Jul-20 11:32N 53°24' W 003°02'0 0.0
2016-Jul-20 10:29N 53°24' W 003°02'0 0.0
2016-Jul-20 09:32N 53°24' W 003°02'0 0.0
2016-Jul-20 08:32N 53°24' W 003°02'0 0.0
2016-Jul-20 07:32N 53°24' W 003°02'0 0.0
2016-Jul-20 06:32N 53°24' W 003°02'0 0.0
2016-Jul-20 05:29N 53°24' W 003°02'0 0.0
2016-Jul-20 04:32N 53°24' W 003°02'0 0.0
2016-Jul-20 03:32N 53°24' W 003°02'0 0.0
2016-Jul-20 02:32N 53°24' W 003°02'0 0.0
2016-Jul-20 01:32N 53°24' W 003°02'0 0.0
2016-Jul-20 00:29N 53°24' W 003°02'0 0.0
2016-Jul-19 23:32N 53°24' W 003°02'0 0.0
2016-Jul-19 22:32N 53°24' W 003°02'0 0.0
2016-Jul-19 21:32N 53°24' W 003°02'0 0.0
2016-Jul-19 20:32N 53°24' W 003°02'0 0.0
2016-Jul-19 19:32N 53°24' W 003°02'0 0.0
2016-Jul-19 18:32N 53°24' W 003°02'0 0.2
2016-Jul-19 17:32N 53°24' W 003°02'0 0.0
2016-Jul-19 16:32N 53°24' W 003°02'0 0.0
2016-Jul-19 15:32N 53°24' W 003°02'0 0.0
2016-Jul-19 14:29N 53°24' W 003°02'0 0.0
2016-Jul-19 13:29N 53°24' W 003°02'0 0.0
2016-Jul-19 12:32N 53°24' W 003°02'0 0.0
2016-Jul-19 11:32N 53°24' W 003°02'0 0.0
2016-Jul-19 10:32N 53°24' W 003°02'0 0.0
2016-Jul-19 09:32N 53°24' W 003°02'0 0.0
2016-Jul-19 08:29N 53°24' W 003°02'0 0.0
2016-Jul-19 07:32N 53°24' W 003°02'0 0.0
2016-Jul-19 04:32N 53°24' W 003°02'0 0.0
2016-Jul-19 03:32N 53°24' W 003°02'0 0.0
2016-Jul-19 02:32N 53°24' W 003°02'0 0.0
2016-Jul-19 01:32N 53°24' W 003°02'0 0.0
2016-Jul-19 00:32N 53°24' W 003°02'0 0.0
2016-Jul-18 23:32N 53°24' W 003°02'0 0.0
2016-Jul-18 22:32N 53°24' W 003°02'0 0.0
2016-Jul-18 21:32N 53°24' W 003°02'0 0.0
2016-Jul-18 20:32N 53°24' W 003°02'0 0.0
2016-Jul-18 19:32N 53°24' W 003°02'0 0.0
2016-Jul-18 18:32N 53°24' W 003°02'0 0.0
2016-Jul-18 17:32N 53°24' W 003°02'0 0.0
2016-Jul-18 16:29N 53°24' W 003°02'0 0.0
2016-Jul-18 15:32N 53°24' W 003°02'0 0.0
2016-Jul-18 14:32N 53°24' W 003°02'0 0.0
2016-Jul-18 13:26N 53°24' W 003°02'0 0.0
2016-Jul-18 12:32N 53°24' W 003°02'0 0.0
2016-Jul-18 11:32N 53°24' W 003°02'0 0.0
2016-Jul-18 10:29N 53°24' W 003°02'0 0.0
2016-Jul-18 09:32N 53°24' W 003°02'0 0.0
2016-Jul-18 08:29N 53°24' W 003°02'0 0.0
2016-Jul-18 07:32N 53°24' W 003°02'0 0.0
2016-Jul-18 06:20N 53°24' W 003°02'0 0.0
2016-Jul-18 05:32N 53°24' W 003°02'0 0.0
2016-Jul-18 04:29N 53°24' W 003°02'0 0.0
2016-Jul-18 03:32N 53°24' W 003°02'0 0.0
2016-Jul-18 02:32N 53°24' W 003°02'0 0.0
2016-Jul-18 01:32N 53°24' W 003°02'0 0.0
2016-Jul-18 00:29N 53°24' W 003°02'0 0.0
2016-Jul-17 23:32N 53°24' W 003°02'0 0.1
2016-Jul-17 22:33N 53°24' W 003°02'0 0.3
2016-Jul-17 21:33N 53°24' W 003°01'0 0.2
2016-Jul-17 20:34N 53°24' W 003°01'4 3.7
2016-Jul-17 19:33N 53°28' W 003°03'9 9.1
2016-Jul-17 18:34N 53°31' W 003°17'5 4.6
2016-Jul-17 17:30N 53°28' W 003°24'0 0.0
2016-Jul-17 16:27N 53°28' W 003°24'0 0.1
2016-Jul-17 15:30N 53°28' W 003°24'0 0.0
2016-Jul-17 14:33N 53°28' W 003°24'0 0.0
2016-Jul-17 13:33N 53°28' W 003°24'0 0.0
2016-Jul-17 12:33N 53°28' W 003°24'0 0.1
2016-Jul-17 11:33N 53°28' W 003°24'0 0.1
2016-Jul-17 10:30N 53°28' W 003°24'0 0.0
2016-Jul-17 09:33N 53°28' W 003°24'0 0.0
2016-Jul-17 08:33N 53°28' W 003°24'0 0.0
2016-Jul-17 07:30N 53°28' W 003°24'6 6.1
2016-Jul-17 06:33N 53°30' W 003°33'  
Track history (hours):
 
Tides and Currents Weather Stations Pressure Air Temp Water Temp Dewpoint Dewpoint Depression Visibility Wind Speed Wind Dir Waves Ship Positions

Butes

Last reported at 2016-Jul-27 05:23 UTC. Time now 2016-Jul-27 19:17 UTC.
Position N 49°29' W 004°13'.

Length 90 m; draft 5.7 m.

Type: Cargo ship. MMSI: 636091937.

Date/timePositionNaut miles runAvg speedWind from/ knotsBaromVisibWave heightAir tempDewpointWater temp
2016-Jul-27 05:23N 49°29' W 004°13'1011.1
2016-Jul-27 04:30N 49°34' W 003°60'1111.0
2016-Jul-27 03:32N 49°40' W 003°46'20 9.9
2016-Jul-27 01:32N 49°50' W 003°20'9 8.7
2016-Jul-27 00:33N 49°55' W 003°09'8 8.4
2016-Jul-26 23:33N 49°59' W 002°57'10211.0
2016-Jul-26 14:15N 50°27' W 000°24'6 8.7
2016-Jul-26 13:33N 50°29' W 000°14'9 8.5
2016-Jul-26 12:29N 50°32' W 000°01'8 9.0
2016-Jul-26 11:33N 50°34' E 000°12'4510.9
2016-Jul-26 07:26N 50°57' E 001°13'910.0
2016-Jul-26 06:33N 51°02' E 001°24'9 8.6
2016-Jul-26 05:33N 51°08' E 001°34'8 7.6
2016-Jul-26 04:33N 51°13' E 001°44'8 8.3
2016-Jul-26 03:33N 51°20' E 001°51'1010.1
2016-Jul-26 02:33N 51°28' E 002°00'1211.4
2016-Jul-26 01:31N 51°37' E 002°13'6466.2
2016-Jul-26 00:33N 52°03' E 003°47'0 0.0
2016-Jul-25 23:33N 52°03' E 003°47'0 0.0
2016-Jul-25 22:32N 52°03' E 003°47'0 0.0
2016-Jul-25 21:33N 52°03' E 003°47'0 0.0
2016-Jul-25 20:33N 52°03' E 003°47'0 0.0
2016-Jul-25 19:33N 52°03' E 003°47'7 6.8
2016-Jul-25 18:33N 52°01' E 003°58'9 9.4
2016-Jul-25 17:33N 51°57' E 004°11'7 6.6
2016-Jul-25 16:32N 51°54' E 004°21'0 0.0
2016-Jul-25 15:32N 51°54' E 004°21'0 0.0
2016-Jul-25 14:33N 51°54' E 004°21'0 0.0
2016-Jul-25 13:33N 51°54' E 004°21'0 0.0
2016-Jul-25 12:33N 51°54' E 004°21'0 0.0
2016-Jul-25 11:33N 51°54' E 004°21'0 0.0
2016-Jul-25 10:33N 51°54' E 004°21'0 0.0
2016-Jul-25 09:33N 51°54' E 004°21'0 0.0
2016-Jul-25 08:33N 51°54' E 004°21'0 0.0
2016-Jul-25 07:33N 51°54' E 004°21'0 0.0
2016-Jul-25 06:32N 51°54' E 004°21'0 0.0
2016-Jul-25 05:28N 51°54' E 004°21'0 0.0
2016-Jul-25 04:32N 51°54' E 004°21'0 0.0
2016-Jul-25 03:32N 51°54' E 004°21'0 0.0
2016-Jul-25 02:32N 51°54' E 004°21'0 0.0
2016-Jul-25 01:32N 51°54' E 004°21'0 0.0
2016-Jul-25 00:32N 51°54' E 004°21'0 0.0
2016-Jul-24 23:32N 51°54' E 004°21'0 0.0
2016-Jul-24 22:32N 51°54' E 004°21'0 0.0
2016-Jul-24 21:32N 51°54' E 004°21'0 0.0
2016-Jul-24 20:32N 51°54' E 004°21'0 0.0
2016-Jul-24 19:32N 51°54' E 004°21'0 0.0
2016-Jul-24 18:28N 51°54' E 004°21'0 0.0
2016-Jul-24 17:32N 51°54' E 004°21'0 0.0
2016-Jul-24 16:32N 51°54' E 004°21'0 0.0
2016-Jul-24 15:32N 51°54' E 004°21'0 0.0
2016-Jul-24 14:32N 51°54' E 004°21'0 0.0
2016-Jul-24 13:32N 51°54' E 004°21'0 0.0
2016-Jul-24 12:32N 51°54' E 004°21'0 0.0
2016-Jul-24 11:32N 51°54' E 004°21'0 0.0
2016-Jul-24 10:32N 51°54' E 004°21'0 0.0
2016-Jul-24 09:32N 51°54' E 004°21'0 0.0
2016-Jul-24 08:32N 51°54' E 004°21'0 0.0
2016-Jul-24 07:32N 51°54' E 004°21'0 0.0
2016-Jul-24 06:32N 51°54' E 004°21'0 0.0
2016-Jul-24 05:32N 51°54' E 004°21'0 0.0
2016-Jul-24 04:32N 51°54' E 004°21'0 0.0
2016-Jul-24 03:32N 51°54' E 004°21'0 0.0
2016-Jul-24 02:32N 51°54' E 004°21'0 0.0
2016-Jul-24 01:32N 51°54' E 004°21'0 0.0
2016-Jul-24 00:32N 51°54' E 004°21'0 0.0
2016-Jul-23 23:32N 51°54' E 004°21'0 0.0
2016-Jul-23 22:32N 51°54' E 004°21'0 0.0
2016-Jul-23 21:32N 51°54' E 004°21'0 0.0
2016-Jul-23 20:32N 51°54' E 004°21'0 0.0
2016-Jul-23 19:32N 51°54' E 004°21'0 0.0
2016-Jul-23 18:32N 51°54' E 004°21'0 0.0
2016-Jul-23 17:32N 51°54' E 004°21'0 0.0
2016-Jul-23 16:32N 51°54' E 004°21'0 0.0
2016-Jul-23 15:32N 51°54' E 004°21'0 0.0
2016-Jul-23 14:32N 51°54' E 004°21'0 0.0
2016-Jul-23 13:33N 51°54' E 004°21'6 6.5
2016-Jul-23 12:33N 51°56' E 004°12'9 9.4
2016-Jul-23 11:33N 51°60' E 003°57'2421.9
2016-Jul-23 10:28N 51°54' E 003°20'0 0.0
2016-Jul-23 09:32N 51°54' E 003°20'3 3.1
2016-Jul-23 08:26N 51°53' E 003°15'18 9.4
2016-Jul-23 06:33N 51°48' E 002°47'2411.9
2016-Jul-23 04:33N 51°32' E 002°19'1313.4
2016-Jul-23 03:33N 51°20' E 002°09'1413.5
2016-Jul-23 02:33N 51°10' E 001°54'1515.0
2016-Jul-23 01:33N 51°01' E 001°35'1514.6
2016-Jul-23 00:33N 50°48' E 001°24'3812.6
2016-Jul-22 21:32N 50°27' E 000°35'1413.1
2016-Jul-22 20:27N 50°23' E 000°13'1112.1
2016-Jul-22 19:33N 50°20' W 000°03'1111.1
2016-Jul-22 18:33N 50°17' W 000°20'1010.3
2016-Jul-22 17:33N 50°15' W 000°36'9 9.4
2016-Jul-22 16:33N 50°12' W 000°50'9 8.7
2016-Jul-22 15:32N 50°10' W 001°03'9 8.8
2016-Jul-22 14:33N 50°08' W 001°16'10 9.6
2016-Jul-22 13:33N 50°05' W 001°30'1111.1
2016-Jul-22 12:33N 50°02' W 001°47'1312.6
2016-Jul-22 11:33N 49°59' W 002°06'1613.9
2016-Jul-22 10:26N 49°55' W 002°30'1213.9
2016-Jul-22 09:33N 49°51' W 002°48'1413.5
2016-Jul-22 08:33N 49°49' W 003°09'227 7.3
2016-Jul-21 01:14N 53°34' W 003°58'812.3
2016-Jul-21 00:33N 53°33' W 003°44'1110.9
2016-Jul-20 23:33N 53°33' W 003°26'10 9.6
2016-Jul-20 22:33N 53°32' W 003°10'9 8.8
2016-Jul-20 21:33N 53°25' W 003°00'1 0.8
2016-Jul-20 20:33N 53°24' W 003°01'0 0.4
2016-Jul-20 19:29N 53°24' W 003°02'0 0.0
2016-Jul-20 18:32N 53°24' W 003°02'0 0.0
2016-Jul-20 17:32N 53°24' W 003°02'0 0.0
2016-Jul-20 16:32N 53°24' W 003°02'0 0.0
2016-Jul-20 15:32N 53°24' W 003°02'0 0.0
2016-Jul-20 14:29N 53°24' W 003°02'0 0.0
2016-Jul-20 13:26N 53°24' W 003°02'0 0.0
2016-Jul-20 12:29N 53°24' W 003°02'0 0.0
2016-Jul-20 11:32N 53°24' W 003°02'0 0.0
2016-Jul-20 10:29N 53°24' W 003°02'0 0.0
2016-Jul-20 09:32N 53°24' W 003°02'0 0.0
2016-Jul-20 08:32N 53°24' W 003°02'0 0.0
2016-Jul-20 07:32N 53°24' W 003°02'0 0.0
2016-Jul-20 06:32N 53°24' W 003°02'0 0.0
2016-Jul-20 05:29N 53°24' W 003°02'0 0.0
2016-Jul-20 04:32N 53°24' W 003°02'0 0.0
2016-Jul-20 03:32N 53°24' W 003°02'0 0.0
2016-Jul-20 02:32N 53°24' W 003°02'0 0.0
2016-Jul-20 01:32N 53°24' W 003°02'0 0.0
2016-Jul-20 00:29N 53°24' W 003°02'0 0.0
2016-Jul-19 23:32N 53°24' W 003°02'0 0.0
2016-Jul-19 22:32N 53°24' W 003°02'0 0.0
2016-Jul-19 21:32N 53°24' W 003°02'0 0.0
2016-Jul-19 20:32N 53°24' W 003°02'0 0.0
2016-Jul-19 19:32N 53°24' W 003°02'0 0.0
2016-Jul-19 18:32N 53°24' W 003°02'0 0.2
2016-Jul-19 17:32N 53°24' W 003°02'0 0.0
2016-Jul-19 16:32N 53°24' W 003°02'0 0.0
2016-Jul-19 15:32N 53°24' W 003°02'0 0.0
2016-Jul-19 14:29N 53°24' W 003°02'0 0.0
2016-Jul-19 13:29N 53°24' W 003°02'0 0.0
2016-Jul-19 12:32N 53°24' W 003°02'0 0.0
2016-Jul-19 11:32N 53°24' W 003°02'0 0.0
2016-Jul-19 10:32N 53°24' W 003°02'0 0.0
2016-Jul-19 09:32N 53°24' W 003°02'0 0.0
2016-Jul-19 08:29N 53°24' W 003°02'0 0.0
2016-Jul-19 07:32N 53°24' W 003°02'0 0.0
2016-Jul-19 04:32N 53°24' W 003°02'0 0.0
2016-Jul-19 03:32N 53°24' W 003°02'0 0.0
2016-Jul-19 02:32N 53°24' W 003°02'0 0.0
2016-Jul-19 01:32N 53°24' W 003°02'0 0.0
2016-Jul-19 00:32N 53°24' W 003°02'0 0.0
2016-Jul-18 23:32N 53°24' W 003°02'0 0.0
2016-Jul-18 22:32N 53°24' W 003°02'0 0.0
2016-Jul-18 21:32N 53°24' W 003°02'0 0.0
2016-Jul-18 20:32N 53°24' W 003°02'0 0.0
2016-Jul-18 19:32N 53°24' W 003°02'0 0.0
2016-Jul-18 18:32N 53°24' W 003°02'0 0.0
2016-Jul-18 17:32N 53°24' W 003°02'0 0.0
2016-Jul-18 16:29N 53°24' W 003°02'0 0.0
2016-Jul-18 15:32N 53°24' W 003°02'0 0.0
2016-Jul-18 14:32N 53°24' W 003°02'0 0.0
2016-Jul-18 13:26N 53°24' W 003°02'0 0.0
2016-Jul-18 12:32N 53°24' W 003°02'0 0.0
2016-Jul-18 11:32N 53°24' W 003°02'0 0.0
2016-Jul-18 10:29N 53°24' W 003°02'0 0.0
2016-Jul-18 09:32N 53°24' W 003°02'0 0.0
2016-Jul-18 08:29N 53°24' W 003°02'0 0.0
2016-Jul-18 07:32N 53°24' W 003°02'0 0.0
2016-Jul-18 06:20N 53°24' W 003°02'0 0.0
2016-Jul-18 05:32N 53°24' W 003°02'0 0.0
2016-Jul-18 04:29N 53°24' W 003°02'0 0.0
2016-Jul-18 03:32N 53°24' W 003°02'0 0.0
2016-Jul-18 02:32N 53°24' W 003°02'0 0.0
2016-Jul-18 01:32N 53°24' W 003°02'0 0.0
2016-Jul-18 00:29N 53°24' W 003°02'0 0.0
2016-Jul-17 23:32N 53°24' W 003°02'0 0.1
2016-Jul-17 22:33N 53°24' W 003°02'0 0.3
2016-Jul-17 21:33N 53°24' W 003°01'0 0.2
2016-Jul-17 20:34N 53°24' W 003°01'4 3.7
2016-Jul-17 19:33N 53°28' W 003°03'9 9.1
2016-Jul-17 18:34N 53°31' W 003°17'5 4.6
2016-Jul-17 17:30N 53°28' W 003°24'0 0.0
2016-Jul-17 16:27N 53°28' W 003°24'0 0.1
2016-Jul-17 15:30N 53°28' W 003°24'0 0.0
2016-Jul-17 14:33N 53°28' W 003°24'0 0.0
2016-Jul-17 13:33N 53°28' W 003°24'0 0.0
2016-Jul-17 12:33N 53°28' W 003°24'0 0.1
2016-Jul-17 11:33N 53°28' W 003°24'0 0.1
2016-Jul-17 10:30N 53°28' W 003°24'0 0.0
2016-Jul-17 09:33N 53°28' W 003°24'0 0.0
2016-Jul-17 08:33N 53°28' W 003°24'0 0.0
2016-Jul-17 07:30N 53°28' W 003°24'6 6.1
2016-Jul-17 06:33N 53°30' W 003°33'  

Dump ship's entire track history